Time;durP1;ratioP1;P1;durP2;ratioP2;P2;SDS_P1;SDS_P2;PMS_P1;PMS_P2;Temp;Humidity;BMP_temperature;BMP_pressure;BME280_temperature;BME280_humidity;BME280_pressure;Samples;Min_cycle;Max_cycle;Signal;HPM_P1;HPM_P2
2022/08/10 00:01:34;;;;;;;2.15;1.95;;;22.00;96.10;;;;;;5073823;28;20193;-79
2022/08/10 00:04:02;;;;;;;3.70;1.83;;;21.70;96.90;;;;;;5072176;28;20201;-83
2022/08/10 00:06:29;;;;;;;3.45;1.63;;;21.70;97.20;;;;;;5065093;28;20217;-80
2022/08/10 00:08:57;;;;;;;2.30;1.83;;;21.80;97.10;;;;;;5071633;28;20190;-81
2022/08/10 00:11:25;;;;;;;2.15;1.95;;;21.70;97.70;;;;;;5071660;28;20193;-77
2022/08/10 00:13:54;;;;;;;1.95;1.75;;;21.50;98.40;;;;;;5070344;28;20209;-81
2022/08/10 00:16:22;;;;;;;3.00;1.95;;;21.50;98.80;;;;;;5072179;28;20668;-80
2022/08/10 00:18:49;;;;;;;3.10;2.00;;;21.20;99.90;;;;;;5070773;28;20695;-80
2022/08/10 00:21:17;;;;;;;3.35;2.25;;;21.40;99.50;;;;;;5071479;28;20198;-80
2022/08/10 00:23:44;;;;;;;3.10;2.25;;;21.40;99.80;;;;;;5071764;28;20205;-81
2022/08/10 00:26:12;;;;;;;3.03;1.98;;;21.10;99.90;;;;;;5063187;28;20198;-80
2022/08/10 00:28:39;;;;;;;2.15;1.70;;;21.20;99.90;;;;;;5068142;28;20198;-80
2022/08/10 00:31:08;;;;;;;2.75;2.15;;;21.20;99.90;;;;;;5067586;28;20193;-80
2022/08/10 00:33:35;;;;;;;2.47;2.22;;;21.30;99.90;;;;;;5065730;28;20205;-80
2022/08/10 00:36:03;;;;;;;2.40;1.92;;;21.20;99.90;;;;;;5069954;28;20197;-81
2022/08/10 00:38:31;;;;;;;3.88;2.60;;;21.30;99.90;;;;;;5072145;28;20189;-80
2022/08/10 00:40:58;;;;;;;2.53;1.83;;;21.20;99.90;;;;;;5064474;28;20226;-80
2022/08/10 00:43:26;;;;;;;1.90;1.80;;;21.10;99.90;;;;;;5070729;28;20202;-80
2022/08/10 00:45:55;;;;;;;2.25;2.05;;;21.40;99.90;;;;;;5074384;28;20198;-81
2022/08/10 00:48:24;;;;;;;2.67;2.10;;;21.70;99.90;;;;;;5073411;28;20688;-81
2022/08/10 00:50:52;;;;;;;4.40;2.15;;;21.90;99.40;;;;;;5072042;28;20202;-80
2022/08/10 00:53:19;;;;;;;2.63;2.40;;;22.00;99.20;;;;;;5076226;28;20197;-79
2022/08/10 00:55:47;;;;;;;2.42;2.03;;;21.80;99.70;;;;;;5071775;28;20202;-77
2022/08/10 00:58:15;;;;;;;2.30;2.10;;;21.80;99.90;;;;;;5072553;28;20218;-81
2022/08/10 01:00:42;;;;;;;3.05;1.92;;;21.60;99.90;;;;;;5069168;28;20672;-80
2022/08/10 01:03:10;;;;;;;3.45;2.03;;;21.30;99.90;;;;;;5074941;28;20189;-81
2022/08/10 01:06:07;;;;;;;2.28;2.08;;;21.10;99.90;;;;;;5074043;28;20648;-80
2022/08/10 01:08:45;;;;;;;2.63;2.30;;;21.20;99.90;;;;;;5072340;28;20193;-78
2022/08/10 01:11:17;;;;;;;4.30;2.22;;;21.00;99.90;;;;;;5066109;28;20205;-80
2022/08/10 01:13:54;;;;;;;2.53;2.33;;;21.00;99.90;;;;;;5073545;28;20212;-81
2022/08/10 01:16:29;;;;;;;2.58;2.20;;;21.00;99.90;;;;;;5074349;28;20213;-80
2022/08/10 01:19:04;;;;;;;2.80;2.40;;;20.90;99.90;;;;;;5073083;28;20205;-81
2022/08/10 01:22:12;;;;;;;2.50;2.28;;;20.70;99.90;;;;;;5071886;28;20221;-79
2022/08/10 01:25:03;;;;;;;2.83;2.63;;;20.90;99.90;;;;;;5070349;28;20205;-81
2022/08/10 01:27:37;;;;;;;2.80;2.13;;;20.70;99.90;;;;;;5065592;28;20565;-79
2022/08/10 01:30:09;;;;;;;2.13;1.85;;;20.90;99.90;;;;;;5069259;28;20667;-80
2022/08/10 01:32:46;;;;;;;2.88;1.83;;;20.90;99.90;;;;;;5067823;28;20202;-80
2022/08/10 01:35:19;;;;;;;2.40;2.20;;;20.70;99.90;;;;;;5066314;28;20216;-81
2022/08/10 01:37:52;;;;;;;3.83;2.38;;;20.50;99.90;;;;;;5071913;28;20225;-80
2022/08/10 01:40:25;;;;;;;2.40;2.20;;;20.60;99.90;;;;;;5069500;28;20222;-80
2022/08/10 01:42:55;;;;;;;2.60;2.40;;;20.50;99.90;;;;;;5067731;28;20201;-80
2022/08/10 01:45:25;;;;;;;3.85;2.40;;;20.50;99.90;;;;;;5071017;28;20198;-81
2022/08/10 01:50:46;;;;;;;2.25;2.10;;;20.70;99.90;;;;;;5073150;28;20189;-80
2022/08/10 01:53:18;;;;;;;3.97;2.90;;;21.10;99.90;;;;;;5074901;28;20197;-77
2022/08/10 01:55:48;;;;;;;2.75;2.42;;;20.80;99.90;;;;;;5068768;28;20193;-80
2022/08/10 01:58:21;;;;;;;4.05;2.75;;;20.80;99.90;;;;;;5071001;28;20225;-80
2022/08/10 02:00:54;;;;;;;3.85;2.53;;;20.80;99.90;;;;;;5068169;28;20214;-81
2022/08/10 02:03:23;;;;;;;3.88;2.65;;;20.90;99.90;;;;;;5074297;28;20205;-81
2022/08/10 02:05:55;;;;;;;2.55;2.35;;;20.80;99.90;;;;;;5073928;28;20197;-80
2022/08/10 02:08:25;;;;;;;3.10;2.63;;;20.50;99.90;;;;;;5066948;28;20199;-80
2022/08/10 02:10:55;;;;;;;4.13;2.92;;;20.30;99.90;;;;;;5065562;28;20216;-80
2022/08/10 02:13:24;;;;;;;4.47;2.75;;;20.30;99.90;;;;;;5071504;28;20252;-81
2022/08/10 02:15:54;;;;;;;3.28;2.78;;;20.40;99.90;;;;;;5068121;28;20205;-80
2022/08/10 02:18:23;;;;;;;4.97;2.90;;;20.40;99.90;;;;;;5070993;28;20549;-81
2022/08/10 02:20:52;;;;;;;3.17;2.83;;;20.40;99.90;;;;;;5072573;28;20225;-80
2022/08/10 02:23:24;;;;;;;3.20;2.65;;;20.30;99.90;;;;;;5071427;28;20198;-81
2022/08/10 02:25:54;;;;;;;2.92;2.50;;;20.20;99.90;;;;;;5069627;28;20213;-81
2022/08/10 02:28:24;;;;;;;4.22;3.20;;;20.40;99.90;;;;;;5068170;28;20579;-80
2022/08/10 02:30:55;;;;;;;3.22;2.88;;;20.30;99.90;;;;;;5070334;28;20194;-80
2022/08/10 02:33:25;;;;;;;3.20;2.33;;;20.20;99.90;;;;;;5070313;28;20226;-81
2022/08/10 02:35:54;;;;;;;3.30;3.00;;;20.30;99.90;;;;;;5070233;28;20205;-80
2022/08/10 02:38:31;;;;;;;2.58;2.38;;;20.50;99.90;;;;;;5071272;28;20193;-80
2022/08/10 02:41:08;;;;;;;2.72;2.33;;;20.80;99.90;;;;;;5070579;28;20213;-81
2022/08/10 02:43:43;;;;;;;2.90;2.47;;;21.00;99.90;;;;;;5068803;28;20197;-80
2022/08/10 02:46:25;;;;;;;3.00;2.53;;;21.00;99.90;;;;;;5063626;28;20667;-80
2022/08/10 02:49:00;;;;;;;3.35;2.95;;;21.00;99.90;;;;;;5060501;28;20205;-80
2022/08/10 02:51:33;;;;;;;4.38;3.05;;;20.90;99.90;;;;;;5071572;28;20663;-80
2022/08/10 02:54:05;;;;;;;3.45;2.47;;;20.60;99.90;;;;;;5069180;28;20204;-80
2022/08/10 02:56:38;;;;;;;3.00;2.80;;;20.60;99.90;;;;;;5065898;28;20222;-81
2022/08/10 02:59:10;;;;;;;3.30;2.70;;;21.00;99.90;;;;;;5070094;28;20209;-81
2022/08/10 03:01:45;;;;;;;2.70;2.50;;;21.00;99.90;;;;;;5066374;28;20217;-80
2022/08/10 03:04:17;;;;;;;3.65;2.60;;;20.90;99.90;;;;;;5067632;28;20198;-81
2022/08/10 03:06:49;;;;;;;3.03;2.75;;;20.90;99.90;;;;;;5068243;28;20237;-81
2022/08/10 03:09:18;;;;;;;3.75;3.03;;;20.60;99.90;;;;;;5067320;28;20218;-82
2022/08/10 03:11:48;;;;;;;2.65;2.45;;;20.60;99.90;;;;;;5063698;28;20197;-80
2022/08/10 03:14:17;;;;;;;4.68;3.13;;;20.80;99.90;;;;;;5064163;28;20217;-80
2022/08/10 03:16:50;;;;;;;3.00;2.30;;;20.50;99.90;;;;;;5067037;28;20232;-80
2022/08/10 03:19:20;;;;;;;2.95;2.55;;;20.70;99.90;;;;;;5066654;28;20198;-81
2022/08/10 03:21:49;;;;;;;2.60;2.40;;;20.90;99.90;;;;;;5063963;28;20210;-81
2022/08/10 03:24:21;;;;;;;3.38;2.53;;;21.00;99.90;;;;;;5084746;28;20197;-80
2022/08/10 03:26:50;;;;;;;3.55;2.80;;;21.10;99.90;;;;;;5070237;28;20224;-81
2022/08/10 03:29:18;;;;;;;3.20;2.88;;;21.20;99.90;;;;;;5071826;28;20212;-81
2022/08/10 03:31:49;;;;;;;4.85;2.88;;;21.20;99.90;;;;;;5066924;28;20197;-81
2022/08/10 03:34:18;;;;;;;3.17;2.88;;;21.20;99.90;;;;;;5069450;28;20194;-81
2022/08/10 03:36:46;;;;;;;3.75;2.90;;;21.00;99.90;;;;;;5072559;28;20221;-80
2022/08/10 03:39:14;;;;;;;3.08;2.75;;;20.90;99.90;;;;;;5073139;28;20224;-81
2022/08/10 03:41:47;;;;;;;4.35;3.00;;;20.40;99.90;;;;;;5074239;28;20691;-80
2022/08/10 03:44:19;;;;;;;3.13;2.88;;;20.10;99.90;;;;;;5067128;28;20575;-81
2022/08/10 03:46:49;;;;;;;4.30;3.15;;;20.30;99.90;;;;;;5077894;28;20221;-80
2022/08/10 03:49:18;;;;;;;4.13;3.00;;;20.00;99.90;;;;;;5080481;28;20205;-79
2022/08/10 03:51:48;;;;;;;2.83;2.63;;;20.20;99.90;;;;;;5080541;28;20198;-81
2022/08/10 03:54:16;;;;;;;4.15;3.40;;;20.50;99.90;;;;;;5082755;28;20201;-80
2022/08/10 03:56:44;;;;;;;4.65;3.22;;;20.70;99.90;;;;;;5081104;28;20222;-80
2022/08/10 03:59:13;;;;;;;3.70;2.80;;;20.00;99.90;;;;;;5079508;28;20206;-80
2022/08/10 04:01:42;;;;;;;3.20;2.95;;;20.20;99.90;;;;;;5080626;28;20292;-80
2022/08/10 04:04:11;;;;;;;4.05;3.47;;;20.40;99.90;;;;;;5069784;28;20194;-81
2022/08/10 04:06:39;;;;;;;4.22;3.72;;;20.10;99.90;;;;;;5066900;28;20218;-82
2022/08/10 04:09:06;;;;;;;4.55;3.25;;;19.40;99.90;;;;;;5071512;28;20209;-81
2022/08/10 04:11:35;;;;;;;3.80;3.25;;;19.50;99.90;;;;;;5069815;28;20206;-81
2022/08/10 04:14:03;;;;;;;4.32;3.92;;;19.40;99.90;;;;;;5090148;28;20209;-82
2022/08/10 04:16:30;;;;;;;4.82;3.22;;;19.40;99.90;;;;;;5079528;28;20224;-81
2022/08/10 04:18:58;;;;;;;4.68;3.83;;;19.50;99.90;;;;;;5072755;28;20209;-81
2022/08/10 04:21:35;;;;;;;3.85;3.40;;;19.30;99.90;;;;;;5073456;28;20214;-80
2022/08/10 04:24:04;;;;;;;3.97;3.35;;;19.50;99.90;;;;;;5067369;28;20202;-81
2022/08/10 04:26:32;;;;;;;4.60;2.83;;;19.90;99.90;;;;;;5063774;28;20226;-81
2022/08/10 04:29:01;;;;;;;5.43;3.53;;;20.20;99.90;;;;;;5077181;28;20197;-80
2022/08/10 04:31:31;;;;;;;5.55;4.00;;;20.10;99.90;;;;;;5075277;28;20656;-81
2022/08/10 04:34:00;;;;;;;4.25;3.85;;;19.70;99.90;;;;;;5073324;28;20205;-82
2022/08/10 04:36:30;;;;;;;4.15;3.28;;;19.40;99.90;;;;;;5075034;28;20218;-82
2022/08/10 04:38:58;;;;;;;4.38;3.97;;;19.40;99.90;;;;;;5078229;28;20197;-82
2022/08/10 04:41:27;;;;;;;5.95;4.07;;;19.70;99.90;;;;;;5072645;28;20229;-82
2022/08/10 04:43:55;;;;;;;3.95;3.25;;;19.80;99.90;;;;;;5072903;28;20201;-82
2022/08/10 04:46:22;;;;;;;6.18;3.55;;;19.90;99.90;;;;;;5073806;28;20221;-81
2022/08/10 04:48:50;;;;;;;4.53;3.85;;;20.00;99.90;;;;;;5076124;28;20570;-82
2022/08/10 04:51:18;;;;;;;4.35;3.95;;;19.80;99.90;;;;;;5075769;28;20196;-81
2022/08/10 04:53:48;;;;;;;6.07;3.60;;;19.40;99.90;;;;;;5076479;28;20197;-81
2022/08/10 04:56:16;;;;;;;4.05;3.25;;;19.50;99.90;;;;;;5080269;28;20194;-81
2022/08/10 04:58:44;;;;;;;4.78;4.38;;;19.40;99.90;;;;;;5077213;28;20205;-81
2022/08/10 05:01:11;;;;;;;6.18;4.18;;;19.20;99.90;;;;;;5073346;28;20205;-81
2022/08/10 05:03:40;;;;;;;4.97;4.25;;;19.30;99.90;;;;;;5068574;28;20198;-80
2022/08/10 05:06:08;;;;;;;4.63;4.05;;;19.20;99.90;;;;;;5075615;28;20201;-82
2022/08/10 05:08:36;;;;;;;5.32;3.53;;;19.70;99.90;;;;;;5067465;28;20198;-81
2022/08/10 05:11:05;;;;;;;6.78;4.10;;;20.00;99.90;;;;;;5074237;28;20216;-81
2022/08/10 05:13:40;;;;;;;4.78;3.13;;;19.60;99.90;;;;;;5077746;28;20194;-82
2022/08/10 05:16:08;;;;;;;4.55;3.60;;;19.70;99.90;;;;;;5067943;28;20210;-82
2022/08/10 05:18:37;;;;;;;3.78;3.47;;;20.10;99.90;;;;;;5073495;28;20204;-82
2022/08/10 05:21:05;;;;;;;3.92;3.53;;;20.30;99.90;;;;;;5080937;28;20212;-85
2022/08/10 05:23:32;;;;;;;5.35;3.70;;;20.50;99.90;;;;;;5078715;28;20202;-82
2022/08/10 05:26:00;;;;;;;3.42;3.13;;;20.70;99.90;;;;;;5088061;28;21475;-82
2022/08/10 05:28:30;;;;;;;5.38;3.78;;;20.80;99.90;;;;;;5080173;28;20202;-82
2022/08/10 05:30:58;;;;;;;4.40;3.70;;;20.90;99.90;;;;;;5078751;28;20225;-83
2022/08/10 05:33:25;;;;;;;4.45;3.75;;;21.00;99.90;;;;;;5080880;28;20193;-84
2022/08/10 05:35:56;;;;;;;5.68;4.55;;;20.90;99.90;;;;;;5076719;28;20205;-83
2022/08/10 05:38:28;;;;;;;5.85;4.57;;;20.50;99.90;;;;;;5077490;28;20190;-82
2022/08/10 05:40:57;;;;;;;5.15;3.78;;;20.60;99.90;;;;;;5078047;28;20198;-82
2022/08/10 05:43:24;;;;;;;4.68;4.20;;;20.80;99.90;;;;;;5075899;28;20217;-82
2022/08/10 05:45:53;;;;;;;5.45;4.00;;;20.60;99.90;;;;;;5077048;28;20213;-83
2022/08/10 05:48:21;;;;;;;6.28;4.15;;;20.70;99.90;;;;;;5075645;28;20228;-82
2022/08/10 05:50:52;;;;;;;4.03;3.70;;;20.80;99.90;;;;;;5076378;28;20213;-83
2022/08/10 05:53:19;;;;;;;5.25;3.67;;;20.80;99.90;;;;;;5074063;28;20224;-82
2022/08/10 05:55:47;;;;;;;5.88;3.63;;;20.80;99.90;;;;;;5075343;28;20197;-84
2022/08/10 05:58:15;;;;;;;4.50;4.10;;;21.00;99.90;;;;;;5077000;28;20225;-83
2022/08/10 06:00:45;;;;;;;4.40;3.97;;;21.00;99.90;;;;;;5081091;28;20205;-82
2022/08/10 06:03:16;;;;;;;3.85;3.55;;;21.10;99.90;;;;;;5075889;28;20284;-84
2022/08/10 06:05:46;;;;;;;5.28;4.30;;;21.20;99.90;;;;;;5065320;28;20193;-84
2022/08/10 06:08:17;;;;;;;5.50;3.72;;;21.30;99.90;;;;;;5068485;28;20741;-82
2022/08/10 06:10:46;;;;;;;4.82;4.43;;;21.50;99.90;;;;;;5072860;28;20225;-84
2022/08/10 06:16:06;;;;;;;4.80;4.10;;;20.90;99.90;;;;;;5074713;28;20197;-83
2022/08/10 06:18:36;;;;;;;5.05;3.67;;;21.20;99.90;;;;;;5074661;28;20194;-82
2022/08/10 06:21:05;;;;;;;7.53;4.80;;;21.30;99.90;;;;;;5078993;28;20197;-83
2022/08/10 06:23:34;;;;;;;5.45;4.85;;;20.90;99.90;;;;;;5066310;28;20217;-82
2022/08/10 06:26:01;;;;;;;4.90;4.40;;;21.00;99.90;;;;;;5065787;28;20220;-82
2022/08/10 06:28:32;;;;;;;4.55;3.67;;;20.60;99.90;;;;;;5072912;28;20189;-83
2022/08/10 06:31:01;;;;;;;4.28;3.75;;;20.90;99.90;;;;;;5071120;28;20204;-82
2022/08/10 06:33:33;;;;;;;8.32;4.68;;;21.00;99.90;;;;;;5072553;28;20193;-82
2022/08/10 06:36:03;;;;;;;7.68;4.35;;;21.10;99.90;;;;;;5072209;28;20198;-83
2022/08/10 06:38:33;;;;;;;5.40;4.10;;;21.30;99.90;;;;;;5071699;28;20208;-82
2022/08/10 06:41:05;;;;;;;4.80;3.97;;;21.50;99.90;;;;;;5060255;28;20209;-82
2022/08/10 06:43:35;;;;;;;6.00;4.13;;;21.60;99.90;;;;;;5073174;28;20213;-83
2022/08/10 06:46:08;;;;;;;4.30;3.88;;;21.60;99.90;;;;;;5067132;28;20217;-82
2022/08/10 06:48:41;;;;;;;5.18;3.80;;;21.60;99.90;;;;;;5065254;28;20202;-83
2022/08/10 06:51:17;;;;;;;6.50;4.32;;;21.70;99.90;;;;;;5072270;28;20656;-82
2022/08/10 06:53:48;;;;;;;6.57;4.88;;;21.90;99.90;;;;;;5075725;28;20201;-82
2022/08/10 06:56:19;;;;;;;5.30;3.60;;;21.80;99.90;;;;;;5078757;28;20194;-83
2022/08/10 06:58:52;;;;;;;7.43;4.22;;;21.70;99.90;;;;;;5076904;28;20224;-80
2022/08/10 07:01:24;;;;;;;5.15;3.53;;;21.70;99.90;;;;;;5069240;28;20233;-85
2022/08/10 07:03:58;;;;;;;5.28;4.47;;;21.90;99.90;;;;;;5071439;28;20241;-84
2022/08/10 07:06:29;;;;;;;6.35;4.05;;;21.70;99.90;;;;;;5060785;28;20221;-82
2022/08/10 07:08:58;;;;;;;4.13;3.72;;;21.40;99.90;;;;;;5076917;28;20197;-82
2022/08/10 07:11:30;;;;;;;6.32;3.30;;;21.50;99.90;;;;;;5078328;28;20209;-84
2022/08/10 07:14:01;;;;;;;5.30;3.22;;;21.60;99.90;;;;;;5095912;28;20204;-84
2022/08/10 07:16:31;;;;;;;4.38;3.85;;;21.90;99.90;;;;;;5083242;28;20236;-82
2022/08/10 07:19:14;;;;;;;4.80;3.72;;;21.90;99.80;;;;;;5081490;28;20206;-83
2022/08/10 07:21:45;;;;;;;6.15;4.00;;;22.00;99.60;;;;;;5077832;28;20201;-82
2022/08/10 07:24:15;;;;;;;4.03;2.78;;;21.80;99.40;;;;;;5074970;28;20239;-83
2022/08/10 07:26:47;;;;;;;7.38;3.70;;;22.00;99.10;;;;;;5065569;28;20232;-82
2022/08/10 07:29:15;;;;;;;4.40;3.45;;;22.20;98.90;;;;;;5071180;28;20193;-82
2022/08/10 07:31:43;;;;;;;4.93;2.97;;;22.10;98.80;;;;;;5069445;28;20220;-83
2022/08/10 07:34:14;;;;;;;4.82;2.90;;;22.20;98.60;;;;;;5071661;28;20197;-84
2022/08/10 07:36:46;;;;;;;3.22;2.95;;;22.20;98.60;;;;;;5070471;28;20916;-84
2022/08/10 07:39:14;;;;;;;5.85;3.25;;;22.30;98.20;;;;;;5068381;28;20201;-83
2022/08/10 07:41:46;;;;;;;4.68;2.85;;;22.50;97.30;;;;;;5071762;28;20690;-82
2022/08/10 07:44:15;;;;;;;4.22;3.15;;;22.60;96.60;;;;;;5068094;28;20206;-81
2022/08/10 07:46:47;;;;;;;3.78;3.00;;;22.80;96.50;;;;;;5079171;28;20703;-83
2022/08/10 07:49:19;;;;;;;3.13;2.83;;;22.80;96.20;;;;;;5075492;28;20193;-82
2022/08/10 07:51:50;;;;;;;4.43;3.08;;;22.80;95.90;;;;;;5079439;28;20202;-82
2022/08/10 07:54:20;;;;;;;3.28;2.53;;;22.80;95.90;;;;;;5081585;28;20194;-83
2022/08/10 07:56:50;;;;;;;3.00;2.65;;;22.90;95.50;;;;;;5078772;28;20225;-82
2022/08/10 07:59:22;;;;;;;4.32;3.45;;;23.00;95.30;;;;;;5082444;28;20197;-80
2022/08/10 08:01:53;;;;;;;5.00;3.38;;;23.00;95.60;;;;;;5083581;28;20204;-81
2022/08/10 08:04:24;;;;;;;4.10;3.10;;;23.00;95.40;;;;;;5081906;28;20228;-81
2022/08/10 08:06:53;;;;;;;3.20;2.75;;;23.10;95.30;;;;;;5075819;28;20221;-81
2022/08/10 08:09:22;;;;;;;5.95;3.08;;;23.30;94.80;;;;;;5080095;28;20583;-81
2022/08/10 08:11:51;;;;;;;5.22;3.95;;;23.30;95.10;;;;;;5077751;28;20210;-82
2022/08/10 08:14:20;;;;;;;5.50;3.08;;;23.30;94.70;;;;;;5074020;28;20194;-81
2022/08/10 08:16:52;;;;;;;3.80;3.00;;;23.30;94.50;;;;;;5076957;28;20228;-81
2022/08/10 08:19:22;;;;;;;5.13;2.97;;;23.20;94.40;;;;;;5083696;28;20198;-81
2022/08/10 08:21:51;;;;;;;5.95;3.00;;;23.20;94.30;;;;;;5079269;28;20200;-81
2022/08/10 08:24:21;;;;;;;3.03;2.75;;;23.40;93.90;;;;;;5073698;28;20217;-81
2022/08/10 08:26:50;;;;;;;3.83;2.92;;;23.60;93.70;;;;;;5078688;28;20236;-81
2022/08/10 08:29:19;;;;;;;3.15;2.85;;;23.70;93.20;;;;;;5082519;28;20241;-81
2022/08/10 08:31:47;;;;;;;3.28;2.80;;;23.70;93.10;;;;;;5077610;28;20568;-81
2022/08/10 08:34:18;;;;;;;3.50;2.80;;;23.70;92.90;;;;;;5081947;28;20205;-82
2022/08/10 08:36:48;;;;;;;4.75;3.00;;;23.80;92.90;;;;;;5072814;28;20699;-82
2022/08/10 08:39:16;;;;;;;3.60;2.88;;;23.90;92.60;;;;;;5080282;28;20198;-81
2022/08/10 08:42:09;;;;;;;3.45;2.90;;;23.90;92.30;;;;;;5080829;28;20750;-81
2022/08/10 08:44:50;;;;;;;5.60;3.03;;;23.90;92.10;;;;;;5082281;28;20213;-81
2022/08/10 08:47:33;;;;;;;4.85;3.50;;;24.00;92.00;;;;;;5079742;28;20663;-81
2022/08/10 08:50:11;;;;;;;4.22;3.25;;;24.10;92.00;;;;;;5081826;28;20681;-81
2022/08/10 08:52:53;;;;;;;4.80;2.80;;;24.20;91.60;;;;;;5077066;28;20194;-81
2022/08/10 08:55:31;;;;;;;3.83;3.00;;;24.10;91.20;;;;;;5075992;28;20198;-82
2022/08/10 08:58:10;;;;;;;3.25;2.70;;;24.30;90.80;;;;;;5072805;28;20224;-81
2022/08/10 09:00:45;;;;;;;2.70;2.50;;;24.40;90.20;;;;;;5083459;28;20193;-81
2022/08/10 09:03:34;;;;;;;5.15;3.20;;;24.50;89.70;;;;;;5083157;28;20204;-82
2022/08/10 09:06:14;;;;;;;4.97;2.63;;;24.50;89.00;;;;;;5076194;28;20209;-82
2022/08/10 09:09:09;;;;;;;4.55;2.80;;;24.50;88.80;;;;;;5072683;28;20201;-81
2022/08/10 09:11:52;;;;;;;4.57;2.97;;;24.50;88.40;;;;;;5072462;28;20206;-82
2022/08/10 09:14:30;;;;;;;5.25;3.20;;;24.60;88.00;;;;;;5082548;28;20195;-82
2022/08/10 09:17:04;;;;;;;3.88;2.80;;;24.70;87.20;;;;;;5075030;28;20212;-82
2022/08/10 09:19:41;;;;;;;7.85;2.95;;;24.80;86.30;;;;;;5064134;28;20197;-82
2022/08/10 09:22:25;;;;;;;6.07;3.10;;;24.80;85.30;;;;;;5074083;28;20201;-82
2022/08/10 09:24:57;;;;;;;3.67;3.20;;;24.90;85.20;;;;;;5074100;28;20214;-81
2022/08/10 09:27:33;;;;;;;4.32;2.85;;;25.00;85.40;;;;;;5070986;28;20221;-81
2022/08/10 09:30:05;;;;;;;4.25;3.28;;;25.00;84.10;;;;;;5081360;28;20563;-81
2022/08/10 09:32:41;;;;;;;3.25;2.95;;;25.10;83.80;;;;;;5083071;28;20212;-80
2022/08/10 09:35:18;;;;;;;3.65;3.35;;;25.20;82.50;;;;;;5069786;28;20193;-83
2022/08/10 09:37:55;;;;;;;4.82;3.38;;;25.20;80.90;;;;;;5072242;28;20221;-81
2022/08/10 09:40:29;;;;;;;3.67;2.97;;;25.30;79.70;;;;;;5080227;28;20197;-81
2022/08/10 09:43:06;;;;;;;5.28;3.55;;;25.50;78.50;;;;;;5081390;28;20201;-82
2022/08/10 09:45:45;;;;;;;3.20;2.83;;;25.60;78.00;;;;;;5080228;28;20433;-83
2022/08/10 09:48:20;;;;;;;4.53;3.25;;;25.60;77.40;;;;;;5073487;28;20218;-82
2022/08/10 09:50:58;;;;;;;4.57;3.90;;;25.70;78.20;;;;;;5076981;28;20204;-82
2022/08/10 09:53:44;;;;;;;3.65;2.92;;;25.90;77.50;;;;;;5078810;28;20206;-82
2022/08/10 09:56:24;;;;;;;4.63;3.28;;;25.80;75.10;;;;;;5081121;28;20201;-83
2022/08/10 09:59:10;;;;;;;4.50;2.90;;;26.00;75.10;;;;;;5084428;28;20208;-83
2022/08/10 10:01:44;;;;;;;6.57;3.00;;;25.90;72.80;;;;;;5084431;28;20208;-82
2022/08/10 10:04:22;;;;;;;4.22;2.88;;;25.90;71.10;;;;;;5076650;28;20201;-82
2022/08/10 10:06:55;;;;;;;5.03;3.30;;;26.10;71.00;;;;;;5078349;28;20225;-80
2022/08/10 10:09:31;;;;;;;3.63;3.33;;;26.10;70.10;;;;;;5077287;28;20189;-80
2022/08/10 10:12:12;;;;;;;4.60;3.20;;;26.10;68.70;;;;;;5078643;28;20208;-81
2022/08/10 10:17:46;;;;;;;3.85;3.50;;;26.30;67.00;;;;;;5075005;28;20225;-80
2022/08/10 10:20:25;;;;;;;3.70;3.20;;;26.40;66.20;;;;;;5077786;28;20539;-80
2022/08/10 10:23:01;;;;;;;3.42;3.05;;;26.70;65.40;;;;;;5079420;28;20204;-81
2022/08/10 10:25:36;;;;;;;3.33;2.85;;;26.70;63.20;;;;;;5075588;28;20213;-82
2022/08/10 10:28:21;;;;;;;4.20;3.28;;;26.70;61.70;;;;;;5070192;28;20228;-83
2022/08/10 10:31:01;;;;;;;5.10;3.30;;;26.70;60.60;;;;;;5070945;28;20201;-83
2022/08/10 10:33:39;;;;;;;5.35;3.10;;;26.90;60.80;;;;;;5064212;28;20198;-83
2022/08/10 10:36:09;;;;;;;4.70;3.95;;;26.90;59.80;;;;;;5072887;28;20196;-85
2022/08/10 10:38:42;;;;;;;3.97;3.67;;;27.00;60.10;;;;;;5073444;28;20197;-82
2022/08/10 10:41:19;;;;;;;3.20;2.90;;;26.90;58.70;;;;;;5071462;28;20213;-82
2022/08/10 10:44:04;;;;;;;4.93;3.40;;;27.00;59.50;;;;;;5075571;28;20189;-83
2022/08/10 10:46:48;;;;;;;5.93;4.05;;;27.10;59.00;;;;;;5073656;28;20378;-82
2022/08/10 10:49:27;;;;;;;5.05;3.03;;;27.10;58.90;;;;;;5074603;28;20202;-82
2022/08/10 10:52:07;;;;;;;3.15;2.88;;;27.20;58.30;;;;;;5091133;28;20201;-83
2022/08/10 10:54:43;;;;;;;5.28;3.33;;;27.20;57.60;;;;;;5071825;28;20189;-83
2022/08/10 10:57:19;;;;;;;4.00;3.50;;;27.20;57.40;;;;;;5072581;28;20659;-82
2022/08/10 10:59:56;;;;;;;3.83;2.97;;;27.50;57.80;;;;;;5076067;28;20201;-83
2022/08/10 11:02:37;;;;;;;3.35;3.05;;;27.50;56.30;;;;;;5074333;28;20201;-83
2022/08/10 11:05:18;;;;;;;4.40;2.90;;;27.50;56.00;;;;;;5073962;28;20729;-83
2022/08/10 11:07:53;;;;;;;3.35;3.05;;;27.60;55.40;;;;;;5075434;28;20213;-82
2022/08/10 11:10:25;;;;;;;4.93;2.90;;;27.50;53.70;;;;;;5073579;28;20219;-81
2022/08/10 11:13:03;;;;;;;3.35;2.60;;;27.60;54.50;;;;;;5074089;28;20206;-82
2022/08/10 11:15:37;;;;;;;3.88;2.80;;;27.70;54.40;;;;;;5068657;28;20204;-83
2022/08/10 11:18:11;;;;;;;2.85;2.50;;;27.80;53.50;;;;;;5074226;28;20225;-82
2022/08/10 11:20:46;;;;;;;2.38;2.17;;;27.80;51.50;;;;;;5064344;28;20200;-82
2022/08/10 11:23:22;;;;;;;2.78;2.50;;;27.90;51.20;;;;;;5072387;28;20197;-82
2022/08/10 11:25:56;;;;;;;4.18;2.35;;;28.00;49.30;;;;;;5071704;28;20228;-83
2022/08/10 11:28:32;;;;;;;2.55;2.35;;;28.10;49.80;;;;;;5077343;28;20221;-81
2022/08/10 11:31:11;;;;;;;2.80;2.60;;;28.10;48.80;;;;;;5074511;28;20197;-82
2022/08/10 11:33:43;;;;;;;2.40;2.20;;;28.20;49.50;;;;;;5072605;28;20197;-82
2022/08/10 11:36:20;;;;;;;2.35;2.15;;;28.30;48.90;;;;;;5084950;28;20178;-82
2022/08/10 11:38:59;;;;;;;3.03;2.30;;;28.30;46.60;;;;;;5091681;28;20200;-83
2022/08/10 11:41:38;;;;;;;3.20;2.10;;;28.30;45.50;;;;;;5092027;28;20193;-82
2022/08/10 11:44:13;;;;;;;2.80;2.05;;;28.30;45.90;;;;;;5076641;28;20210;-81
2022/08/10 11:46:48;;;;;;;3.40;2.40;;;28.40;45.00;;;;;;5077561;28;20216;-81
2022/08/10 11:49:27;;;;;;;2.53;2.08;;;28.60;46.00;;;;;;5079282;28;20201;-81
2022/08/10 11:52:02;;;;;;;3.90;2.40;;;28.50;45.30;;;;;;5079451;28;20205;-81
2022/08/10 11:54:40;;;;;;;2.80;2.10;;;28.70;46.10;;;;;;5080306;28;20197;-79
2022/08/10 11:57:10;;;;;;;2.97;2.53;;;28.80;45.60;;;;;;5080117;28;20221;-80
2022/08/10 11:59:56;;;;;;;3.65;2.45;;;28.80;43.40;;;;;;5078947;28;20664;-80
2022/08/10 12:02:27;;;;;;;2.15;1.95;;;29.00;44.60;;;;;;5077984;28;20194;-80
2022/08/10 12:05:02;;;;;;;2.35;2.15;;;29.20;44.50;;;;;;5076094;28;20571;-80
2022/08/10 12:07:32;;;;;;;3.05;1.92;;;29.10;43.10;;;;;;5079213;28;20216;-80
2022/08/10 12:10:03;;;;;;;2.75;1.70;;;29.20;42.10;;;;;;5077821;28;20205;-80
2022/08/10 12:12:36;;;;;;;3.15;2.00;;;29.30;41.00;;;;;;5073865;28;20194;-80
2022/08/10 12:15:15;;;;;;;3.08;2.03;;;29.30;40.60;;;;;;5061973;28;20201;-82
2022/08/10 12:17:50;;;;;;;2.20;2.00;;;29.40;39.10;;;;;;5067406;28;20229;-82
2022/08/10 12:20:28;;;;;;;4.38;2.08;;;29.70;40.00;;;;;;5069711;28;20212;-82
2022/08/10 12:23:01;;;;;;;2.75;2.55;;;29.90;40.30;;;;;;5075244;28;20193;-82
2022/08/10 12:25:35;;;;;;;3.08;2.75;;;30.00;39.10;;;;;;5067738;28;20597;-82
2022/08/10 12:28:12;;;;;;;2.13;2.03;;;30.20;39.20;;;;;;5069100;28;20221;-83
2022/08/10 12:30:46;;;;;;;4.55;2.42;;;30.00;39.20;;;;;;5070847;28;20208;-82
2022/08/10 12:33:21;;;;;;;2.28;1.90;;;30.20;38.60;;;;;;5074975;28;20201;-82
2022/08/10 12:35:54;;;;;;;2.60;2.30;;;30.20;38.00;;;;;;5071523;28;20185;-82
2022/08/10 12:38:31;;;;;;;4.05;2.05;;;30.20;37.50;;;;;;5074354;28;20210;-83
2022/08/10 12:41:02;;;;;;;2.78;1.95;;;30.40;36.80;;;;;;5075358;28;20193;-82
2022/08/10 12:43:36;;;;;;;3.53;2.30;;;30.60;37.10;;;;;;5067912;28;20200;-82
2022/08/10 12:46:12;;;;;;;2.47;2.00;;;30.60;36.70;;;;;;5061178;28;20672;-82
2022/08/10 12:48:48;;;;;;;2.47;2.28;;;30.60;36.60;;;;;;5074355;28;20201;-82
2022/08/10 12:51:21;;;;;;;2.28;1.90;;;30.50;35.90;;;;;;5074705;28;20198;-82
2022/08/10 12:53:56;;;;;;;2.13;2.00;;;30.60;35.90;;;;;;5063470;28;20197;-82
2022/08/10 12:56:26;;;;;;;2.47;2.28;;;30.50;36.40;;;;;;5068003;28;20218;-82
2022/08/10 12:58:55;;;;;;;3.25;2.28;;;30.70;37.50;;;;;;5072971;28;20201;-82
2022/08/10 13:01:26;;;;;;;3.45;2.00;;;30.80;36.60;;;;;;5074604;28;20198;-82
2022/08/10 13:03:58;;;;;;;2.75;1.80;;;31.00;35.60;;;;;;5065770;28;20194;-82
2022/08/10 13:06:27;;;;;;;2.55;2.35;;;31.00;34.80;;;;;;5075654;28;20221;-84
2022/08/10 13:09:09;;;;;;;2.15;1.90;;;31.40;34.50;;;;;;5068370;28;20206;-84
2022/08/10 13:11:41;;;;;;;1.80;1.70;;;31.60;34.10;;;;;;5071341;28;20209;-84
2022/08/10 13:14:12;;;;;;;1.92;1.83;;;31.50;32.40;;;;;;5073892;28;20272;-83
2022/08/10 13:16:42;;;;;;;1.73;1.63;;;31.50;32.60;;;;;;5072797;28;20210;-84
2022/08/10 13:19:13;;;;;;;2.63;1.85;;;31.70;33.20;;;;;;5066027;28;20570;-84
2022/08/10 13:21:42;;;;;;;4.97;2.30;;;31.80;33.00;;;;;;5074386;28;20198;-85
2022/08/10 13:24:14;;;;;;;1.63;1.52;;;31.70;32.90;;;;;;5067147;28;20661;-84